Time;durP1;ratioP1;P1;durP2;ratioP2;P2;SDS_P1;SDS_P2;PMS_P1;PMS_P2;Temp;Humidity;BMP_temperature;BMP_pressure;BME280_temperature;BME280_humidity;BME280_pressure;Samples;Min_cycle;Max_cycle;Signal;HPM_P1;HPM_P2
2022/08/26 00:02:17;;;;;;;18.98;14.43;;;;;;;21.21;54.41;100092.97;5037128;28;20044;-71
2022/08/26 00:04:42;;;;;;;25.05;15.27;;;;;;;21.22;53.70;100091.09;5037011;28;20066;-72
2022/08/26 00:07:07;;;;;;;19.05;13.40;;;;;;;21.23;54.74;100090.06;5037450;28;20115;-72
2022/08/26 00:09:32;;;;;;;22.05;14.73;;;;;;;21.21;54.38;100087.53;5019116;28;20182;-70
2022/08/26 00:11:57;;;;;;;22.77;15.57;;;;;;;21.22;53.72;100096.53;5018959;28;20048;-69
2022/08/26 00:14:23;;;;;;;22.05;15.10;;;;;;;21.21;54.42;100097.53;5019021;28;20049;-69
2022/08/26 00:16:48;;;;;;;28.27;15.48;;;;;;;21.21;52.10;100094.81;5037096;28;20040;-73
2022/08/26 00:19:13;;;;;;;25.00;15.63;;;;;;;21.23;51.89;100090.91;5019907;28;20043;-73
2022/08/26 00:21:37;;;;;;;21.38;14.27;;;;;;;21.24;52.84;100092.59;5019629;28;20051;-67
2022/08/26 00:24:02;;;;;;;35.70;15.10;;;;;;;21.20;52.97;100091.25;5018647;28;20860;-72
2022/08/26 00:26:27;;;;;;;23.33;15.55;;;;;;;21.16;52.19;100087.13;5037026;28;20048;-69
2022/08/26 00:28:52;;;;;;;24.48;15.57;;;;;;;21.14;51.98;100097.28;5018802;28;20120;-71
2022/08/26 00:31:17;;;;;;;27.42;16.13;;;;;;;21.15;52.13;100093.56;5037651;28;20060;-73
2022/08/26 00:33:41;;;;;;;32.15;16.17;;;;;;;21.14;52.84;100094.59;5038102;28;20041;-73
2022/08/26 00:36:07;;;;;;;34.13;15.27;;;;;;;21.06;53.70;100086.44;5041542;28;20058;-72
2022/08/26 00:38:32;;;;;;;21.67;15.15;;;;;;;21.04;54.41;100096.59;5038802;28;20040;-73
2022/08/26 00:40:57;;;;;;;27.50;16.10;;;;;;;20.99;54.60;100096.25;5018911;28;20044;-71
2022/08/26 00:43:23;;;;;;;32.50;16.75;;;;;;;20.97;54.62;100103.72;5018652;28;20106;-71
2022/08/26 00:46:00;;;;;;;28.33;15.35;;;;;;;20.96;54.94;100105.56;5036623;28;20052;-72
2022/08/26 00:48:28;;;;;;;21.70;16.80;;;;;;;20.91;55.42;100097.06;5037005;28;20388;-72
2022/08/26 00:51:05;;;;;;;30.08;15.88;;;;;;;20.92;55.67;100103.34;5036699;28;20056;-72
2022/08/26 00:53:35;;;;;;;25.13;15.13;;;;;;;20.86;55.88;100101.31;5036986;28;20392;-72
2022/08/26 00:56:04;;;;;;;22.90;15.30;;;;;;;20.84;56.02;100103.31;5019981;28;20044;-74
2022/08/26 00:58:31;;;;;;;25.48;16.05;;;;;;;20.79;56.14;100101.09;5037945;28;20040;-73
2022/08/26 01:00:56;;;;;;;30.20;16.20;;;;;;;20.75;55.96;100093.47;5036951;28;20487;-71
2022/08/26 01:03:26;;;;;;;29.92;17.77;;;;;;;20.74;56.36;100100.75;5036553;28;20524;-69
2022/08/26 01:05:55;;;;;;;24.52;15.85;;;;;;;20.70;56.23;100104.78;5003646;28;20090;-68
2022/08/26 01:08:21;;;;;;;28.83;17.13;;;;;;;20.64;56.02;100098.19;5042919;28;20043;-67
2022/08/26 01:10:45;;;;;;;22.33;14.82;;;;;;;20.61;56.32;100095.78;5025596;28;20037;-71
2022/08/26 01:13:12;;;;;;;23.17;15.38;;;;;;;20.59;56.58;100095.09;5027656;28;20089;-68
2022/08/26 01:15:43;;;;;;;25.98;16.02;;;;;;;20.58;56.91;100095.25;5049178;28;20043;-68
2022/08/26 01:18:09;;;;;;;26.23;15.98;;;;;;;20.51;56.81;100096.94;5048283;28;20120;-68
2022/08/26 01:20:40;;;;;;;24.85;15.38;;;;;;;20.50;57.04;100090.66;5037862;28;20131;-68
2022/08/26 01:23:09;;;;;;;26.67;16.40;;;;;;;20.46;56.99;100097.41;5035970;28;20048;-70
2022/08/26 01:25:37;;;;;;;32.00;17.55;;;;;;;20.43;57.33;100094.19;5017605;28;20526;-69
2022/08/26 01:28:07;;;;;;;33.53;17.33;;;;;;;20.42;57.44;100097.91;5017453;28;20108;-70
2022/08/26 01:30:34;;;;;;;23.08;15.70;;;;;;;20.38;57.73;100093.81;5035559;28;20144;-70
2022/08/26 01:33:02;;;;;;;26.85;16.38;;;;;;;20.37;57.56;100098.38;5040636;28;20043;-73
2022/08/26 01:35:28;;;;;;;28.17;16.63;;;;;;;20.33;57.53;100088.84;5041062;28;20047;-70
2022/08/26 01:37:54;;;;;;;28.00;17.70;;;;;;;20.31;57.76;100099.00;5038892;28;20086;-71
2022/08/26 01:40:25;;;;;;;29.05;16.40;;;;;;;20.32;57.85;100100.66;5017808;28;20094;-70
2022/08/26 01:42:51;;;;;;;25.23;14.98;;;;;;;20.27;57.49;100093.03;5001179;28;20058;-71
2022/08/26 01:45:21;;;;;;;24.45;16.00;;;;;;;20.29;57.81;100095.59;5035385;28;20487;-71
2022/08/26 01:47:48;;;;;;;34.00;18.42;;;;;;;20.28;57.69;100105.56;5035594;28;20139;-71
2022/08/26 01:50:17;;;;;;;25.58;16.77;;;;;;;20.28;57.71;100091.19;5035223;28;20392;-72
2022/08/26 01:52:45;;;;;;;28.05;15.80;;;;;;;20.28;58.05;100097.44;5035477;28;20059;-74
2022/08/26 01:55:13;;;;;;;29.65;17.77;;;;;;;20.26;58.21;100095.91;5041661;28;20040;-74
2022/08/26 01:57:39;;;;;;;25.85;17.38;;;;;;;20.24;58.34;100093.34;5025575;28;20059;-75
2022/08/26 02:00:08;;;;;;;26.73;15.88;;;;;;;20.25;58.40;100102.34;5034781;28;20411;-70
2022/08/26 02:02:36;;;;;;;28.48;16.00;;;;;;;20.21;57.02;100090.97;5034751;28;20128;-74
2022/08/26 02:05:05;;;;;;;22.88;15.70;;;;;;;20.25;58.30;100096.91;5016773;28;20182;-71
2022/08/26 02:07:31;;;;;;;25.92;15.95;;;;;;;20.24;58.27;100100.63;5034821;28;20090;-72
2022/08/26 02:09:56;;;;;;;30.05;16.85;;;;;;;20.25;58.48;100099.63;5034615;28;20176;-73
2022/08/26 02:12:21;;;;;;;25.08;17.50;;;;;;;20.25;57.86;100094.22;5016412;28;20052;-72
2022/08/26 02:14:53;;;;;;;25.13;16.70;;;;;;;20.30;58.24;100108.13;5034689;28;20075;-72
2022/08/26 02:17:24;;;;;;;25.25;17.15;;;;;;;20.31;58.09;100112.53;5035151;28;20040;-73
2022/08/26 02:19:49;;;;;;;28.00;18.15;;;;;;;20.29;57.91;100107.28;5016589;28;20041;-73
2022/08/26 02:22:19;;;;;;;31.70;17.85;;;;;;;20.31;58.02;100099.00;5000530;28;20040;-71
2022/08/26 02:24:56;;;;;;;34.08;18.38;;;;;;;20.32;57.99;100103.38;5000358;28;20069;-69
2022/08/26 02:27:29;;;;;;;26.00;17.13;;;;;;;20.23;58.10;100102.50;5034818;28;20131;-68
2022/08/26 02:29:59;;;;;;;34.53;18.30;;;;;;;20.19;58.53;100101.13;5017367;28;20108;-67
2022/08/26 02:32:24;;;;;;;28.13;17.23;;;;;;;20.15;58.13;100096.19;5035570;28;20182;-67
2022/08/26 02:34:49;;;;;;;28.92;17.42;;;;;;;20.12;58.24;100099.19;5035527;28;20040;-67
2022/08/26 02:37:13;;;;;;;28.35;16.67;;;;;;;20.12;58.78;100099.19;5034561;28;20521;-67
2022/08/26 02:39:41;;;;;;;27.83;17.88;;;;;;;20.12;58.58;100104.63;5016799;28;20029;-66
2022/08/26 02:42:06;;;;;;;27.92;19.02;;;;;;;20.13;58.84;100100.91;5034496;28;20097;-65
2022/08/26 02:44:31;;;;;;;28.38;18.52;;;;;;;20.15;58.73;100107.00;5016479;28;20043;-65
2022/08/26 02:46:56;;;;;;;28.77;17.83;;;;;;;20.18;58.83;100096.72;5034201;28;20499;-64
2022/08/26 02:49:22;;;;;;;31.85;18.65;;;;;;;20.20;58.81;100097.38;5034675;28;20045;-65
2022/08/26 02:51:48;;;;;;;25.30;17.08;;;;;;;20.21;58.54;100104.50;5048701;28;20052;-65
2022/08/26 02:54:12;;;;;;;34.40;18.25;;;;;;;20.26;58.75;100112.16;5036382;28;20058;-65
2022/08/26 02:56:37;;;;;;;24.92;18.45;;;;;;;20.28;58.71;100097.44;5054510;28;20048;-69
2022/08/26 02:59:02;;;;;;;28.00;18.33;;;;;;;20.34;58.53;100109.47;5054491;28;20490;-67
2022/08/26 03:01:32;;;;;;;30.33;18.98;;;;;;;20.42;58.26;100111.44;5054535;28;20040;-66
2022/08/26 03:03:58;;;;;;;28.00;17.52;;;;;;;20.44;58.03;100102.13;5054513;28;20100;-66
2022/08/26 03:06:23;;;;;;;27.63;18.00;;;;;;;20.50;58.33;100106.91;5036389;28;20063;-66
2022/08/26 03:08:48;;;;;;;25.13;16.70;;;;;;;20.54;57.39;100113.69;5054401;28;20054;-67
2022/08/26 03:11:13;;;;;;;29.70;18.80;;;;;;;20.59;57.75;100114.06;5054654;28;20458;-68
2022/08/26 03:13:38;;;;;;;26.85;19.27;;;;;;;20.62;57.51;100113.75;5054486;28;20040;-68
2022/08/26 03:16:04;;;;;;;30.20;18.15;;;;;;;20.69;57.22;100113.06;5054249;28;20048;-68
2022/08/26 03:18:29;;;;;;;28.70;17.75;;;;;;;20.73;57.23;100118.03;5036173;28;20078;-68
2022/08/26 03:20:53;;;;;;;23.27;17.35;;;;;;;20.76;57.31;100112.28;5054011;28;20494;-67
2022/08/26 03:23:18;;;;;;;25.55;16.58;;;;;;;20.79;57.21;100114.63;5054239;28;20085;-69
2022/08/26 03:25:48;;;;;;;27.00;17.63;;;;;;;20.94;56.89;100120.28;5054254;28;20054;-69
2022/08/26 03:28:13;;;;;;;28.48;17.13;;;;;;;21.02;56.98;100117.59;5054103;28;20051;-70
2022/08/26 03:30:41;;;;;;;28.23;19.25;;;;;;;21.10;56.86;100117.66;5036047;28;20060;-69
2022/08/26 03:33:09;;;;;;;32.05;19.55;;;;;;;21.14;56.48;100116.28;5053961;28;20044;-70
2022/08/26 03:35:34;;;;;;;26.90;19.63;;;;;;;21.19;57.49;100127.53;5036158;28;20135;-69
2022/08/26 03:37:59;;;;;;;28.08;19.67;;;;;;;21.24;57.45;100119.72;5053899;28;20127;-69
2022/08/26 03:40:25;;;;;;;26.05;16.73;;;;;;;21.32;54.94;100118.91;5053921;28;20123;-71
2022/08/26 03:42:50;;;;;;;27.50;16.95;;;;;;;21.48;54.79;100128.91;5054044;28;20062;-71
2022/08/26 03:45:17;;;;;;;22.02;16.33;;;;;;;21.66;55.21;100126.91;5035839;28;20052;-69
2022/08/26 03:47:43;;;;;;;22.85;16.83;;;;;;;21.88;54.62;100117.25;5035696;28;20040;-68
2022/08/26 03:50:11;;;;;;;23.77;18.17;;;;;;;22.05;54.29;100119.78;5053633;28;20452;-69
2022/08/26 03:52:36;;;;;;;31.00;18.45;;;;;;;22.24;54.01;100118.56;5053478;28;20060;-69
2022/08/26 03:55:02;;;;;;;26.98;17.70;;;;;;;22.39;53.21;100115.97;5019017;28;20100;-70
2022/08/26 03:57:28;;;;;;;29.33;17.75;;;;;;;22.54;52.26;100113.41;5003063;28;20388;-70
2022/08/26 03:59:52;;;;;;;28.05;18.55;;;;;;;22.66;51.47;100118.28;5056734;28;20859;-68
2022/08/26 04:02:17;;;;;;;21.65;15.02;;;;;;;22.85;48.77;100127.06;5039325;28;20126;-70
2022/08/26 04:04:42;;;;;;;21.48;14.40;;;;;;;23.02;47.13;100123.25;5057518;28;20140;-67
2022/08/26 04:07:07;;;;;;;24.20;15.10;;;;;;;23.21;46.34;100122.81;5057373;28;20134;-68
2022/08/26 04:09:32;;;;;;;21.88;12.25;;;;;;;23.38;45.23;100129.81;5057116;28;20109;-66
2022/08/26 04:11:57;;;;;;;20.40;14.20;;;;;;;23.49;45.21;100134.84;5039091;28;20043;-66
2022/08/26 04:14:24;;;;;;;24.35;14.48;;;;;;;23.57;44.87;100127.69;5039056;28;20075;-66
2022/08/26 04:16:49;;;;;;;21.92;14.65;;;;;;;23.62;44.82;100130.72;5039038;28;20044;-66
2022/08/26 04:19:15;;;;;;;25.45;14.48;;;;;;;23.69;44.32;100131.69;5057297;28;20071;-68
2022/08/26 04:21:40;;;;;;;28.60;14.43;;;;;;;23.75;44.23;100130.94;5057139;28;20040;-68
2022/08/26 04:24:06;;;;;;;27.17;14.98;;;;;;;23.87;44.01;100137.66;5056923;28;20110;-68
2022/08/26 04:26:35;;;;;;;28.58;16.33;;;;;;;24.01;43.88;100136.00;5056984;28;20120;-69
2022/08/26 04:29:00;;;;;;;27.30;15.85;;;;;;;24.09;43.27;100128.59;5056832;28;20071;-71
2022/08/26 04:31:25;;;;;;;27.42;16.88;;;;;;;24.24;43.10;100132.25;5021982;28;20082;-67
2022/08/26 04:33:50;;;;;;;32.53;16.67;;;;;;;24.47;42.83;100136.78;5057143;28;20121;-67
2022/08/26 04:36:15;;;;;;;27.33;16.02;;;;;;;24.56;42.48;100131.03;5057156;28;20108;-67
2022/08/26 04:38:40;;;;;;;34.78;16.38;;;;;;;24.78;42.14;100136.56;5038518;28;20044;-67
2022/08/26 04:41:10;;;;;;;29.17;18.95;;;;;;;25.02;41.54;100136.31;5056819;28;20040;-67
2022/08/26 04:43:36;;;;;;;24.27;16.25;;;;;;;25.23;41.10;100132.78;5021941;28;20054;-68
2022/08/26 04:46:04;;;;;;;24.33;16.02;;;;;;;25.47;40.66;100135.16;5038309;28;20081;-67
2022/08/26 04:48:29;;;;;;;26.42;16.23;;;;;;;25.79;40.14;100139.28;5057008;28;20100;-68
2022/08/26 04:50:54;;;;;;;30.33;16.08;;;;;;;26.04;39.53;100143.28;5056340;28;20506;-68
2022/08/26 04:53:19;;;;;;;25.05;17.10;;;;;;;26.31;38.98;100132.56;5056491;28;20050;-68
2022/08/26 04:55:44;;;;;;;29.42;16.25;;;;;;;26.52;39.14;100148.09;5038591;28;20095;-68
2022/08/26 04:58:09;;;;;;;31.10;16.63;;;;;;;26.76;38.26;100139.38;5038431;28;20044;-67
2022/08/26 05:00:34;;;;;;;31.25;16.73;;;;;;;26.98;38.08;100141.00;5056542;28;20402;-68
2022/08/26 05:02:59;;;;;;;26.38;17.10;;;;;;;27.19;37.49;100136.47;5056943;28;20483;-68
2022/08/26 05:05:24;;;;;;;30.35;17.02;;;;;;;27.43;37.36;100149.59;5056452;28;20406;-68
2022/08/26 05:07:49;;;;;;;29.05;16.10;;;;;;;27.65;36.85;100139.38;5056346;28;20056;-69
2022/08/26 05:10:13;;;;;;;24.75;16.10;;;;;;;28.05;35.79;100142.97;5056044;28;20136;-70
2022/08/26 05:12:38;;;;;;;32.67;16.20;;;;;;;28.44;35.42;100142.16;5056414;28;20058;-69
2022/08/26 05:15:04;;;;;;;20.45;15.43;;;;;;;28.89;34.78;100140.38;5037738;28;20576;-70
2022/08/26 05:17:28;;;;;;;23.55;15.30;;;;;;;29.27;33.82;100141.25;5056086;28;20050;-71
2022/08/26 05:19:53;;;;;;;21.48;15.02;;;;;;;29.56;32.89;100145.38;5056036;28;20036;-71
2022/08/26 05:22:19;;;;;;;29.48;16.23;;;;;;;29.88;32.44;100154.44;5056074;28;20071;-73
2022/08/26 05:24:45;;;;;;;24.25;14.88;;;;;;;30.19;32.36;100147.25;5037784;28;20047;-71
2022/08/26 05:27:09;;;;;;;34.17;23.05;;;;;;;30.55;31.67;100158.38;5055846;28;20442;-71
2022/08/26 05:29:34;;;;;;;20.95;15.35;;;;;;;31.01;31.08;100157.84;5055747;28;20437;-72
2022/08/26 05:32:00;;;;;;;22.08;15.00;;;;;;;31.27;30.20;100158.59;5055753;28;20058;-72
2022/08/26 05:34:25;;;;;;;20.77;13.98;;;;;;;31.61;29.66;100157.91;5055743;28;20085;-71
2022/08/26 05:36:50;;;;;;;20.23;14.40;;;;;;;32.00;29.01;100159.28;5056167;28;20408;-72
2022/08/26 05:39:16;;;;;;;29.15;14.13;;;;;;;32.18;28.48;100160.28;5056092;28;20044;-71
2022/08/26 05:41:41;;;;;;;22.13;13.10;;;;;;;32.27;28.59;100169.91;5037660;28;20055;-72
2022/08/26 05:44:09;;;;;;;23.65;13.60;;;;;;;32.39;27.83;100166.06;5058175;28;20074;-71
2022/08/26 05:46:36;;;;;;;21.40;12.88;;;;;;;32.72;27.69;100154.47;5067236;28;20082;-70
2022/08/26 05:49:02;;;;;;;18.95;13.25;;;;;;;33.34;26.81;100162.16;5058603;28;20498;-70
2022/08/26 05:51:27;;;;;;;22.45;13.32;;;;;;;33.96;25.89;100159.47;5060488;28;20056;-69
2022/08/26 05:53:52;;;;;;;21.95;13.60;;;;;;;34.33;25.08;100165.38;5038307;28;20048;-67
2022/08/26 05:56:19;;;;;;;18.73;12.98;;;;;;;34.57;24.73;100172.41;5056292;28;20517;-67
2022/08/26 05:58:43;;;;;;;19.00;13.48;;;;;;;34.82;24.09;100163.66;5055451;28;20502;-68
2022/08/26 06:01:21;;;;;;;22.13;12.07;;;;;;;35.18;23.69;100167.75;5055281;28;20513;-67
2022/08/26 06:03:50;;;;;;;18.20;12.23;;;;;;;35.38;23.27;100164.41;5055430;28;20040;-67
2022/08/26 06:06:18;;;;;;;17.45;12.52;;;;;;;35.59;22.69;100169.91;5055481;28;20157;-67
2022/08/26 06:08:44;;;;;;;17.13;12.98;;;;;;;35.90;22.24;100167.47;5055150;28;20040;-68
2022/08/26 06:11:11;;;;;;;16.13;11.20;;;;;;;36.18;21.44;100175.53;5055175;28;20444;-68
2022/08/26 06:13:37;;;;;;;18.30;12.27;;;;;;;36.19;21.04;100163.31;5055347;28;20044;-68
2022/08/26 06:16:05;;;;;;;14.93;11.88;;;;;;;36.27;20.43;100170.34;5055156;28;20797;-68
2022/08/26 06:18:33;;;;;;;22.17;13.45;;;;;;;36.58;20.16;100169.44;5055040;28;20505;-69
2022/08/26 06:20:58;;;;;;;16.98;12.13;;;;;;;36.72;19.52;100169.84;5054675;28;20039;-68
2022/08/26 06:26:09;;;;;;;14.25;11.35;;;;;;;37.07;18.99;100172.84;5054979;28;20040;-69
2022/08/26 06:28:34;;;;;;;18.95;12.15;;;;;;;37.32;19.16;100158.22;5054736;28;20063;-69
2022/08/26 06:31:01;;;;;;;12.50;10.48;;;;;;;37.65;18.59;100168.09;5054752;28;20048;-68
2022/08/26 06:33:27;;;;;;;12.18;10.73;;;;;;;38.08;17.77;100163.16;5036624;28;20051;-68
2022/08/26 06:35:52;;;;;;;14.90;12.18;;;;;;;38.31;17.50;100164.53;5054931;28;20056;-69
2022/08/26 06:38:17;;;;;;;15.45;11.13;;;;;;;38.74;17.11;100177.03;5054983;28;20067;-67
2022/08/26 06:40:45;;;;;;;11.38;10.15;;;;;;;38.83;16.93;100178.13;5054808;28;20083;-68
2022/08/26 06:43:11;;;;;;;15.57;10.60;;;;;;;38.91;16.84;100176.72;5036889;28;20089;-67
2022/08/26 06:45:37;;;;;;;16.75;11.75;;;;;;;38.87;16.63;100179.25;5054848;28;20048;-70
2022/08/26 06:48:03;;;;;;;15.10;11.45;;;;;;;38.99;17.26;100178.97;5036801;28;20096;-67
2022/08/26 06:50:27;;;;;;;22.90;12.00;;;;;;;39.36;16.92;100175.75;5054730;28;20051;-67
2022/08/26 06:52:53;;;;;;;15.82;11.38;;;;;;;39.69;16.27;100174.19;5036787;28;20052;-67
2022/08/26 06:55:17;;;;;;;13.50;11.32;;;;;;;40.25;16.67;100160.66;5020034;28;20044;-68
2022/08/26 06:57:42;;;;;;;16.95;11.27;;;;;;;40.88;15.43;100169.84;5036846;28;20040;-67
2022/08/26 07:00:09;;;;;;;15.95;11.82;;;;;;;41.02;15.60;100178.38;5055119;28;20571;-68
2022/08/26 07:02:34;;;;;;;17.67;10.98;;;;;;;40.71;15.01;100171.47;5054679;28;20048;-68
2022/08/26 07:04:58;;;;;;;13.07;10.75;;;;;;;40.56;15.41;100167.66;5054939;28;20054;-68
2022/08/26 07:07:23;;;;;;;15.13;11.75;;;;;;;40.53;14.99;100175.78;5054716;28;20044;-68
2022/08/26 07:09:48;;;;;;;17.05;11.60;;;;;;;40.72;14.90;100170.34;5036185;28;20040;-67
2022/08/26 07:12:12;;;;;;;13.20;11.88;;;;;;;40.78;15.11;100169.97;5054277;28;20071;-68
2022/08/26 07:14:37;;;;;;;13.45;12.07;;;;;;;41.24;15.01;100164.69;5054186;28;20065;-66
2022/08/26 07:17:02;;;;;;;15.80;11.73;;;;;;;41.32;14.23;100172.41;5036333;28;20051;-68
2022/08/26 07:19:27;;;;;;;14.63;12.90;;;;;;;40.95;15.14;100166.72;5054222;28;20109;-68
2022/08/26 07:21:51;;;;;;;19.35;12.23;;;;;;;41.39;14.74;100165.63;5054400;28;20055;-67
2022/08/26 07:24:16;;;;;;;13.93;12.00;;;;;;;41.95;14.35;100169.31;5036740;28;20102;-67
2022/08/26 07:26:41;;;;;;;18.13;12.88;;;;;;;42.38;14.14;100160.78;5054495;28;20054;-66
2022/08/26 07:29:05;;;;;;;14.98;12.43;;;;;;;42.46;13.41;100168.47;5054280;28;20063;-69
2022/08/26 07:31:34;;;;;;;14.32;12.05;;;;;;;42.69;13.29;100175.06;5054231;28;20045;-70
2022/08/26 07:33:59;;;;;;;16.70;14.90;;;;;;;43.06;13.82;100176.88;5055505;28;20044;-69
2022/08/26 07:36:26;;;;;;;15.00;12.75;;;;;;;43.37;12.64;100161.06;5057913;28;20067;-68
2022/08/26 07:38:51;;;;;;;15.38;13.27;;;;;;;43.20;13.19;100166.50;5058033;28;20406;-67
2022/08/26 07:41:18;;;;;;;25.35;12.77;;;;;;;43.43;12.93;100170.22;5022987;28;20446;-68
2022/08/26 07:43:44;;;;;;;15.88;12.82;;;;;;;43.59;12.61;100165.09;5058054;28;20044;-67
2022/08/26 07:46:09;;;;;;;17.42;13.95;;;;;;;43.83;13.38;100164.81;5058180;28;20043;-67
2022/08/26 07:48:34;;;;;;;14.98;13.35;;;;;;;44.27;12.42;100166.81;5058029;28;20068;-68
2022/08/26 07:51:00;;;;;;;14.95;13.52;;;;;;;44.81;12.01;100163.69;5057882;28;20056;-67
2022/08/26 07:53:25;;;;;;;15.68;14.00;;;;;;;45.32;11.83;100165.06;5058429;28;20462;-68
2022/08/26 07:55:50;;;;;;;14.52;12.98;;;;;;;45.36;11.96;100168.06;5024116;28;20066;-68
2022/08/26 07:58:15;;;;;;;17.73;13.93;;;;;;;44.86;11.35;100162.75;5039527;28;20039;-68
2022/08/26 08:00:41;;;;;;;16.63;14.85;;;;;;;44.57;11.87;100157.63;5058003;28;20498;-69
2022/08/26 08:03:06;;;;;;;15.43;13.85;;;;;;;44.48;12.32;100160.38;5057765;28;20387;-67
2022/08/26 08:05:33;;;;;;;14.77;13.25;;;;;;;45.13;11.63;100158.91;5039529;28;20127;-67
2022/08/26 08:07:59;;;;;;;17.10;15.35;;;;;;;46.17;11.71;100163.47;5057366;28;20081;-67
2022/08/26 08:10:25;;;;;;;20.60;14.95;;;;;;;47.04;11.24;100163.28;5057419;28;20040;-67
2022/08/26 08:12:51;;;;;;;16.33;14.77;;;;;;;47.61;10.16;100167.25;5057266;28;20047;-67
2022/08/26 08:15:19;;;;;;;16.55;15.05;;;;;;;46.97;10.60;100164.59;5039444;28;20036;-70
2022/08/26 08:17:44;;;;;;;17.83;16.13;;;;;;;46.09;10.89;100153.03;5038961;28;20044;-68
2022/08/26 08:20:09;;;;;;;15.90;14.25;;;;;;;46.36;10.76;100159.50;5057549;28;20039;-67
2022/08/26 08:22:34;;;;;;;17.88;16.10;;;;;;;46.45;10.69;100149.03;5057480;28;20047;-69
2022/08/26 08:24:59;;;;;;;18.13;16.33;;;;;;;46.70;10.96;100150.97;5057380;28;20048;-68
2022/08/26 08:27:24;;;;;;;19.23;15.75;;;;;;;46.99;10.84;100153.78;5057133;28;20044;-69
2022/08/26 08:29:49;;;;;;;16.23;14.65;;;;;;;47.30;10.27;100153.47;5057229;28;20105;-68
2022/08/26 08:32:14;;;;;;;18.33;16.48;;;;;;;47.16;10.36;100152.09;5057189;28;20036;-68
2022/08/26 08:34:39;;;;;;;16.50;15.05;;;;;;;47.43;10.37;100153.59;5057256;28;20062;-67
2022/08/26 08:37:05;;;;;;;20.60;15.35;;;;;;;47.86;10.43;100159.75;5039158;28;20213;-68
2022/08/26 08:39:30;;;;;;;18.17;16.48;;;;;;;47.98;10.07;100153.31;5057338;28;20140;-67
2022/08/26 08:42:26;;;;;;;18.65;16.55;;;;;;;48.12;9.59;100158.69;5057041;28;20126;-67
2022/08/26 08:44:54;;;;;;;18.02;16.35;;;;;;;48.12;10.36;100165.19;5038283;28;20051;-68
2022/08/26 08:47:36;;;;;;;19.73;17.63;;;;;;;48.76;9.83;100153.34;5056927;28;20524;-68
2022/08/26 08:50:28;;;;;;;20.08;18.15;;;;;;;47.99;10.13;100152.13;5039113;28;20048;-69
2022/08/26 08:53:14;;;;;;;20.15;18.30;;;;;;;48.59;9.68;100148.72;5056762;28;20502;-69
2022/08/26 08:56:07;;;;;;;20.42;18.73;;;;;;;48.96;10.23;100157.28;5038966;28;20048;-68
2022/08/26 08:58:47;;;;;;;;;;;;;;;49.99;9.49;100143.56;5057489;28;20529;-69
2022/08/26 09:01:38;;;;;;;20.67;18.92;;;;;;;50.71;9.04;100150.00;5057144;28;19927;-69
2022/08/26 09:04:14;;;;;;;22.90;20.88;;;;;;;50.56;9.02;100148.00;5057012;28;20082;-69
2022/08/26 09:06:40;;;;;;;24.33;22.42;;;;;;;50.38;9.26;100138.97;5057060;28;20047;-69
2022/08/26 09:09:06;;;;;;;26.48;24.10;;;;;;;51.12;8.97;100148.63;5037995;28;20039;-70
2022/08/26 09:11:31;;;;;;;24.05;21.75;;;;;;;51.71;7.85;100147.56;5056356;28;20040;-68
2022/08/26 09:13:56;;;;;;;23.25;21.45;;;;;;;50.94;7.89;100141.69;5056262;28;20047;-69
2022/08/26 09:16:44;;;;;;;21.67;20.02;;;;;;;50.60;7.75;100138.38;5056275;28;20692;-68
2022/08/26 09:19:45;;;;;;;22.45;20.40;;;;;;;49.16;8.83;100139.34;4922561;28;20153;-69
2022/08/26 09:22:10;;;;;;;21.02;19.00;;;;;;;47.47;9.20;100134.78;4938407;28;20050;-68
2022/08/26 09:24:38;;;;;;;17.92;16.42;;;;;;;46.85;9.71;100132.59;4954871;28;20064;-68
2022/08/26 09:27:02;;;;;;;17.48;15.70;;;;;;;46.37;10.41;100122.50;4938808;28;20513;-67
2022/08/26 09:29:39;;;;;;;19.73;18.00;;;;;;;46.03;10.80;100120.56;4938539;28;20651;-68
2022/08/26 09:32:18;;;;;;;19.27;17.52;;;;;;;46.42;10.18;100136.41;4954831;28;20038;-67
2022/08/26 09:35:06;;;;;;;17.67;16.05;;;;;;;47.21;9.85;100130.09;4938666;28;20065;-67
2022/08/26 09:37:41;;;;;;;19.30;16.13;;;;;;;47.22;9.81;100130.94;4954691;28;20054;-68
2022/08/26 09:40:21;;;;;;;17.70;16.02;;;;;;;48.23;9.47;100125.97;4954845;28;20117;-72
2022/08/26 09:42:46;;;;;;;19.40;17.92;;;;;;;48.94;8.71;100129.31;4954552;28;20046;-68
2022/08/26 09:45:11;;;;;;;20.50;18.67;;;;;;;49.25;8.34;100127.88;4954592;28;20050;-68
2022/08/26 09:47:40;;;;;;;21.10;19.30;;;;;;;49.92;7.95;100129.16;4954587;28;20503;-68
2022/08/26 09:50:18;;;;;;;22.50;20.70;;;;;;;50.30;7.83;100131.47;4954351;28;20502;-69
2022/08/26 09:52:43;;;;;;;20.73;19.27;;;;;;;49.66;8.01;100126.75;4938136;28;20054;-68
2022/08/26 09:55:08;;;;;;;22.23;20.52;;;;;;;49.88;8.01;100119.75;4962038;28;20053;-68
2022/08/26 09:57:42;;;;;;;20.73;18.92;;;;;;;48.61;9.09;100120.91;5054486;28;20039;-68
2022/08/26 10:00:30;;;;;;;20.83;19.05;;;;;;;47.97;9.51;100121.38;5037708;28;20123;-68
2022/08/26 10:02:57;;;;;;;22.60;20.70;;;;;;;46.04;10.80;100102.50;5042575;28;20046;-68
2022/08/26 10:05:43;;;;;;;20.05;18.33;;;;;;;45.17;11.17;100093.16;5040087;28;20436;-67
2022/08/26 10:08:26;;;;;;;17.88;16.10;;;;;;;45.11;11.82;100113.31;5020772;28;20044;-69
2022/08/26 10:10:52;;;;;;;17.02;15.40;;;;;;;45.06;10.70;100110.66;5055457;28;20083;-69
2022/08/26 10:13:23;;;;;;;15.95;14.25;;;;;;;44.52;10.89;100098.69;5020339;28;20079;-68
2022/08/26 10:16:06;;;;;;;15.98;14.57;;;;;;;44.45;11.13;100102.00;5054001;28;20058;-69
2022/08/26 10:19:00;;;;;;;15.30;13.77;;;;;;;43.22;12.02;100096.03;5055143;28;20050;-69
2022/08/26 10:21:33;;;;;;;14.52;12.90;;;;;;;41.64;12.63;100084.09;5050808;28;20078;-68
2022/08/26 10:24:02;;;;;;;13.57;12.18;;;;;;;39.94;13.96;100078.28;5036822;28;20559;-67
2022/08/26 10:27:02;;;;;;;13.15;11.75;;;;;;;39.00;15.13;100088.63;5055054;28;20525;-69
2022/08/26 10:29:47;;;;;;;14.43;12.57;;;;;;;37.55;15.87;100072.59;5036979;28;20043;-69
2022/08/26 10:32:20;;;;;;;14.02;12.63;;;;;;;36.32;17.51;100062.09;5055005;28;20126;-67
2022/08/26 10:34:45;;;;;;;16.40;12.85;;;;;;;35.67;18.38;100065.97;5055296;28;20520;-69
2022/08/26 10:37:14;;;;;;;13.45;11.75;;;;;;;35.23;18.42;100066.06;5020140;28;20478;-68
2022/08/26 10:39:53;;;;;;;14.90;11.63;;;;;;;34.86;18.62;100065.09;5036933;28;20044;-67
2022/08/26 10:42:45;;;;;;;12.73;10.80;;;;;;;34.56;18.40;100073.81;5054676;28;20032;-69
2022/08/26 10:45:18;;;;;;;12.25;10.93;;;;;;;34.67;17.93;100070.06;5037166;28;20187;-70
2022/08/26 10:47:53;;;;;;;13.80;11.80;;;;;;;34.29;18.06;100057.09;5054633;28;20048;-70
2022/08/26 10:50:19;;;;;;;14.68;10.43;;;;;;;34.00;18.74;100072.94;5054552;28;20160;-69
2022/08/26 10:52:46;;;;;;;13.82;11.50;;;;;;;33.63;19.07;100050.47;5054765;28;20164;-69
2022/08/26 10:55:19;;;;;;;17.80;11.27;;;;;;;33.30;19.60;100053.16;5020852;28;20051;-69
2022/08/26 10:57:55;;;;;;;12.48;11.05;;;;;;;32.95;20.24;100048.63;5036856;28;20048;-69
2022/08/26 11:03:14;;;;;;;13.45;11.02;;;;;;;32.53;21.09;100041.59;5054809;28;20485;-71
2022/08/26 11:05:39;;;;;;;20.38;10.63;;;;;;;32.62;19.98;100040.16;5054747;28;20040;-72
2022/08/26 11:08:19;;;;;;;13.23;10.90;;;;;;;32.94;19.85;100044.19;5056163;28;20047;-72
2022/08/26 11:10:56;;;;;;;12.75;11.05;;;;;;;33.18;19.62;100042.16;5059027;28;20543;-71
2022/08/26 11:14:01;;;;;;;14.43;10.70;;;;;;;33.42;19.02;100049.25;5058966;28;20040;-71
2022/08/26 11:16:56;;;;;;;13.10;10.27;;;;;;;33.63;18.75;100049.63;5040676;28;20055;-71
2022/08/26 11:19:29;;;;;;;11.57;10.38;;;;;;;33.54;18.81;100046.41;4941393;28;20054;-74
2022/08/26 11:22:03;;;;;;;15.00;9.82;;;;;;;33.29;19.08;100035.75;4957981;28;20182;-73